Sti Hammersmith — V7DP3 — position and weather

sailwx.info

Track history (hours):
 
Tides and Currents Weather Stations Pressure Air Temp Water Temp Dewpoint Dewpoint Depression Visibility Wind Speed Wind Dir Waves Ship Positions

Sti Hammersmith

Last reported at 2018-Jul-22 22:00 UTC. Time now 2018-Jul-22 22:02 UTC.
Position N 55°46' E 019°12'.

Length 184 m; draft 9.9 m.

Type: Tanker. MMSI: 538005410.

Date/timePositionNaut miles runAvg speedWind from/ knotsBaromVisibWave heightAir tempDewpointWater temp
2018-Jul-22 22:00N 55°46' E 019°12'611.8
2018-Jul-22 21:30N 55°52' E 019°13'611.8
2018-Jul-22 21:00N 55°57' E 019°14'611.8
2018-Jul-22 20:30N 56°03' E 019°15'612.0
2018-Jul-22 20:00N 56°09' E 019°16'612.0
2018-Jul-22 19:29N 56°16' E 019°17'1412.4
2018-Jul-22 18:21N 56°30' E 019°20'412.7
2018-Jul-22 18:00N 56°34' E 019°21'612.4
2018-Jul-22 17:30N 56°40' E 019°22'912.5
2018-Jul-22 16:49N 56°48' E 019°24'812.5
2018-Jul-22 16:11N 56°57' E 019°25'312.4
2018-Jul-22 15:56N 56°59' E 019°26'1811.8
2018-Jul-22 14:26N 57°16' E 019°38'511.0
2018-Jul-22 13:59N 57°20' E 019°43'9211.9
2018-Jul-22 06:15N 58°42' E 021°05'310.3
2018-Jul-22 06:00N 58°44' E 021°07'610.4
2018-Jul-22 05:26N 58°49' E 021°13'510.5
2018-Jul-22 04:54N 58°54' E 021°19'712.5
2018-Jul-22 04:19N 58°60' E 021°26'413.1
2018-Jul-22 04:00N 59°03' E 021°30'812.7
2018-Jul-22 03:24N 59°10' E 021°40'2912.5
2018-Jul-22 01:05N 59°28' E 022°24'112.6
2018-Jul-22 01:00N 59°28' E 022°25'612.4
2018-Jul-22 00:30N 59°31' E 022°36'612.8
2018-Jul-22 00:00N 59°33' E 022°48'612.7
2018-Jul-21 23:30N 59°35' E 023°00'612.6
2018-Jul-21 23:00N 59°37' E 023°12'612.7
2018-Jul-21 22:30N 59°38' E 023°24'612.9
2018-Jul-21 22:00N 59°40' E 023°37'612.8
2018-Jul-21 21:30N 59°42' E 023°49'712.7
2018-Jul-21 20:59N 59°44' E 024°01'713.0
2018-Jul-21 20:28N 59°46' E 024°14'613.0
2018-Jul-21 20:00N 59°47' E 024°26'612.8
2018-Jul-21 19:30N 59°49' E 024°38'612.6
2018-Jul-21 19:00N 59°50' E 024°50'712.5
2018-Jul-21 18:27N 59°52' E 025°04'612.6
2018-Jul-21 18:00N 59°53' E 025°15'812.3
2018-Jul-21 17:20N 59°58' E 025°28'412.0
2018-Jul-21 17:00N 60°01' E 025°33'611.3
2018-Jul-21 16:30N 60°06' E 025°38'8 0.3
2018-Jul-20 08:36N 60°14' E 025°35'213.2
2018-Jul-20 08:28N 60°12' E 025°36'511.9
2018-Jul-20 08:00N 60°07' E 025°35'510.9
2018-Jul-20 07:30N 60°02' E 025°33'2 4.3
2018-Jul-20 06:56N 60°00' E 025°29'0 0.2
2018-Jul-20 06:30N 60°00' E 025°29'0 0.0
2018-Jul-20 05:54N 60°00' E 025°29'0 0.1
2018-Jul-20 05:30N 60°00' E 025°29'0 0.0
2018-Jul-20 05:00N 60°00' E 025°29'0 0.0
2018-Jul-20 04:29N 60°00' E 025°29'0 0.0
2018-Jul-20 03:35N 60°00' E 025°29'0 0.0
2018-Jul-20 03:23N 60°00' E 025°29'0 0.0
2018-Jul-19 22:41N 60°00' E 025°29'0 0.0
2018-Jul-19 22:29N 60°00' E 025°29'0 0.0
2018-Jul-19 21:59N 60°00' E 025°29'0 0.0
2018-Jul-19 21:29N 60°00' E 025°29'0 0.0
2018-Jul-19 20:50N 60°00' E 025°29'0 0.1
2018-Jul-19 20:29N 60°00' E 025°29'0 0.0
2018-Jul-19 19:59N 60°00' E 025°29'0 0.0
2018-Jul-19 19:29N 60°00' E 025°29'0 0.0
2018-Jul-19 18:53N 60°00' E 025°29'0 0.1
2018-Jul-19 18:29N 60°00' E 025°29'0 0.0
2018-Jul-19 17:59N 60°00' E 025°29'0 0.0
2018-Jul-19 17:29N 60°00' E 025°29'0 0.1
2018-Jul-19 16:53N 60°00' E 025°29'0 0.0
2018-Jul-19 16:29N 60°00' E 025°29'0 0.1
2018-Jul-19 15:59N 60°00' E 025°29'0 0.1
2018-Jul-19 15:29N 60°00' E 025°29'0 0.1
2018-Jul-19 14:59N 60°01' E 025°29'0 0.0
2018-Jul-19 14:29N 60°01' E 025°29'0 0.0
2018-Jul-19 13:29N 60°01' E 025°29'0 0.0
2018-Jul-19 12:59N 60°01' E 025°29'0 0.0
2018-Jul-19 12:29N 60°01' E 025°29'0 0.0
2018-Jul-19 11:56N 60°01' E 025°29'0 0.0
2018-Jul-19 11:23N 60°01' E 025°29'0 0.1
2018-Jul-19 10:53N 60°01' E 025°29'0 0.0
2018-Jul-19 10:26N 60°00' E 025°29'0 0.0
2018-Jul-19 09:59N 60°00' E 025°29'0 0.0
2018-Jul-19 09:26N 60°00' E 025°29'0 0.0
2018-Jul-19 08:08N 60°00' E 025°29'0 0.1
2018-Jul-19 07:59N 60°00' E 025°29'0 0.0
2018-Jul-19 07:29N 60°00' E 025°29'0 0.0
2018-Jul-19 06:59N 60°00' E 025°29'0 0.0
2018-Jul-19 06:29N 60°00' E 025°29'0 0.0
2018-Jul-19 05:59N 60°00' E 025°29'0 0.0
2018-Jul-19 05:29N 60°00' E 025°29'0 0.0
2018-Jul-19 04:59N 60°00' E 025°29'0 0.0
2018-Jul-19 04:29N 60°00' E 025°29'0 0.0
2018-Jul-19 03:59N 60°00' E 025°29'0 0.0
2018-Jul-19 03:26N 60°00' E 025°29'0 0.0
2018-Jul-19 02:59N 60°00' E 025°29'0 0.0
2018-Jul-19 02:29N 60°00' E 025°29'0 0.0
2018-Jul-19 01:59N 60°00' E 025°29'0 0.0
2018-Jul-19 01:29N 60°00' E 025°29'0 0.0
2018-Jul-19 00:59N 60°00' E 025°29'0 0.0
2018-Jul-19 00:29N 60°00' E 025°29'0 0.0
2018-Jul-18 23:59N 60°00' E 025°29'0 0.0
2018-Jul-18 23:29N 60°00' E 025°29'0 0.0
2018-Jul-18 22:59N 60°00' E 025°29'0 0.0
2018-Jul-18 22:26N 60°00' E 025°29'0 0.0
2018-Jul-18 21:59N 60°00' E 025°29'0 0.0
2018-Jul-18 21:29N 60°00' E 025°29'0 0.0
2018-Jul-18 20:59N 60°00' E 025°29'0 0.0
2018-Jul-18 20:29N 60°00' E 025°29'0 0.0
2018-Jul-18 19:50N 60°00' E 025°29'0 0.0
2018-Jul-18 19:29N 60°00' E 025°29'0 0.0
2018-Jul-18 18:59N 60°00' E 025°29'0 0.0
2018-Jul-18 18:29N 60°00' E 025°29'0 0.0
2018-Jul-18 17:56N 60°00' E 025°29'0 0.0
2018-Jul-18 17:29N 60°00' E 025°29'0 0.0
2018-Jul-18 16:59N 60°00' E 025°29'0 0.0
2018-Jul-18 16:29N 60°00' E 025°29'0 0.0
2018-Jul-18 15:56N 60°00' E 025°29'0 0.0
2018-Jul-18 15:29N 60°00' E 025°29'0 0.0
2018-Jul-18 14:56N 60°00' E 025°29'0 0.0
2018-Jul-18 14:29N 60°00' E 025°29'0 0.0
2018-Jul-18 13:29N 60°00' E 025°29'0 0.0
2018-Jul-18 12:53N 60°00' E 025°29'0 0.0
2018-Jul-18 12:29N 60°00' E 025°29'0 0.0
2018-Jul-18 11:59N 60°00' E 025°29'0 0.0
2018-Jul-18 11:29N 60°00' E 025°29'0 0.0
2018-Jul-18 10:26N 60°00' E 025°29'0 0.0
2018-Jul-18 09:59N 60°00' E 025°29'0 0.0
2018-Jul-18 09:23N 60°00' E 025°29'0 0.4
2018-Jul-18 08:58N 60°00' E 025°29'2 5.4
2018-Jul-18 08:31N 59°58' E 025°30'510.3
2018-Jul-18 08:01N 59°53' E 025°28'910.5
2018-Jul-18 07:08N 59°49' E 025°12'111.2
2018-Jul-18 07:00N 59°49' E 025°09'711.6
2018-Jul-18 06:22N 59°47' E 024°55'410.7
2018-Jul-18 06:01N 59°46' E 024°47'611.3
2018-Jul-18 05:30N 59°45' E 024°36'611.5
2018-Jul-18 05:01N 59°43' E 024°25'611.9
2018-Jul-18 04:30N 59°42' E 024°14'1811.8
2018-Jul-18 02:59N 59°36' E 023°40'611.9
2018-Jul-18 02:30N 59°34' E 023°30'611.9
2018-Jul-18 02:00N 59°32' E 023°18'612.0
2018-Jul-18 01:30N 59°30' E 023°07'611.9
2018-Jul-18 01:00N 59°28' E 022°56'3211.9
2018-Jul-17 22:19N 59°11' E 022°03'412.1
2018-Jul-17 22:00N 59°09' E 021°57'612.0
2018-Jul-17 21:30N 59°05' E 021°48'611.8
2018-Jul-17 21:01N 59°01' E 021°40'611.7
2018-Jul-17 20:30N 58°56' E 021°34'611.9
2018-Jul-17 20:01N 58°51' E 021°28'612.0
2018-Jul-17 19:30N 58°46' E 021°21'612.1
2018-Jul-17 19:00N 58°41' E 021°15'612.0
2018-Jul-17 18:30N 58°36' E 021°08'612.1
2018-Jul-17 18:01N 58°31' E 021°02'612.1
2018-Jul-17 17:30N 58°26' E 020°55'612.0
2018-Jul-17 17:00N 58°21' E 020°49'612.2
2018-Jul-17 16:30N 58°16' E 020°42'612.1
2018-Jul-17 16:00N 58°11' E 020°36'612.2
2018-Jul-17 15:30N 58°06' E 020°29'612.1
2018-Jul-17 14:59N 58°01' E 020°23'611.9
2018-Jul-17 14:28N 57°55' E 020°18'5511.8
2018-Jul-17 09:50N 57°06' E 019°33'411.5
2018-Jul-17 09:30N 57°03' E 019°30'611.8
2018-Jul-17 09:00N 56°58' E 019°25'611.9
2018-Jul-17 08:30N 56°52' E 019°20'611.9
2018-Jul-17 08:00N 56°47' E 019°16'612.0
2018-Jul-17 07:29N 56°41' E 019°11'612.1
2018-Jul-17 07:01N 56°36' E 019°06'612.0
2018-Jul-17 06:30N 56°31' E 019°01'1012.1
2018-Jul-17 05:38N 56°21' E 018°53'212.2
2018-Jul-17 05:30N 56°20' E 018°51'611.8
2018-Jul-17 04:59N 56°16' E 018°43'612.2
2018-Jul-17 04:30N 56°13' E 018°34'612.1
2018-Jul-17 04:00N 56°10' E 018°25'612.1
2018-Jul-17 03:30N 56°06' E 018°16'612.0
2018-Jul-17 03:00N 56°03' E 018°07'611.9
2018-Jul-17 02:30N 56°00' E 017°58'612.1
2018-Jul-17 02:00N 55°57' E 017°49'612.0
2018-Jul-17 01:30N 55°54' E 017°39'612.0
2018-Jul-17 01:00N 55°53' E 017°29'611.9
2018-Jul-17 00:30N 55°51' E 017°18'1211.8
2018-Jul-16 23:30N 55°44' E 017°02'612.1
2018-Jul-16 23:00N 55°40' E 016°54'612.1
2018-Jul-16 22:30N 55°36' E 016°46'612.0
2018-Jul-16 22:00N 55°31' E 016°39'611.9
2018-Jul-16 21:30N 55°27' E 016°32'611.9
2018-Jul-16 21:00N 55°23' E 016°24'612.2
2018-Jul-16 20:30N 55°19' E 016°16'612.1
2018-Jul-16 20:01N 55°15' E 016°08'612.0
2018-Jul-16 19:30N 55°11' E 016°00'612.0
2018-Jul-16 19:01N 55°07' E 015°53'611.9
2018-Jul-16 18:30N 55°03' E 015°46'612.0
2018-Jul-16 18:00N 54°58' E 015°38'712.0
2018-Jul-16 17:28N 54°54' E 015°30'612.3
2018-Jul-16 17:01N 54°50' E 015°23'612.2
2018-Jul-16 16:30N 54°46' E 015°14'612.2
2018-Jul-16 16:00N 54°42' E 015°07'612.1
2018-Jul-16 15:31N 54°39' E 014°58'712.2
2018-Jul-16 14:59N 54°36' E 014°48'612.3
2018-Jul-16 14:30N 54°34' E 014°39'612.5
2018-Jul-16 14:01N 54°32' E 014°28'612.6
2018-Jul-16 13:31N 54°31' E 014°18'611.8
2018-Jul-16 13:00N 54°28' E 014°08'612.6
2018-Jul-16 12:31N 54°22' E 014°05'3 5.1
2018-Jul-16 11:55N 54°19' E 014°05'0 0.0
2018-Jul-16 11:25N 54°19' E 014°05'0 0.0
2018-Jul-16 10:55N 54°19' E 014°05'0 0.0
2018-Jul-16 10:19N 54°19' E 014°05'0 0.0
2018-Jul-16 09:19N 54°19' E 014°05'0 0.0
2018-Jul-16 08:58N 54°19' E 014°05'0 0.0
2018-Jul-16 08:13N 54°19' E 014°05'0 0.0
2018-Jul-16 07:58N 54°19' E 014°05'0 0.0
2018-Jul-16 07:25N 54°19' E 014°05'0 0.0
2018-Jul-16 06:55N 54°19' E 014°05'0 0.0
2018-Jul-16 06:28N 54°19' E 014°05'0 0.0
2018-Jul-16 05:55N 54°19' E 014°05'0 0.0
2018-Jul-16 05:28N 54°19' E 014°05'0 0.0
2018-Jul-16 04:58N 54°19' E 014°05'0 0.0
2018-Jul-16 04:28N 54°19' E 014°05'0 0.0
2018-Jul-16 03:58N 54°19' E 014°05'0 0.0
2018-Jul-16 03:25N 54°19' E 014°05'0 0.0
2018-Jul-16 02:58N 54°19' E 014°05'0 0.0
2018-Jul-16 02:25N 54°19' E 014°05'0 0.0
2018-Jul-15 19:28N 54°19' E 014°05'0 0.0
2018-Jul-15 18:43N 54°19' E 014°05'0 0.0
2018-Jul-15 18:25N 54°19' E 014°05'0 0.0
2018-Jul-15 17:58N 54°19' E 014°05'0 0.0
2018-Jul-15 17:28N 54°19' E 014°05'0 0.0
2018-Jul-15 11:10N 54°19' E 014°05'0 0.0
2018-Jul-15 09:58N 54°19' E 014°05'0 0.0
2018-Jul-15 09:13N 54°19' E 014°05'0 0.0
2018-Jul-15 07:40N 54°19' E 014°05'0 0.0
2018-Jul-15 07:28N 54°19' E 014°05'0 0.0
2018-Jul-15 06:52N 54°19' E 014°05'0 0.1
2018-Jul-15 06:01N 54°19' E 014°05'0 0.0
2018-Jul-15 05:49N 54°19' E 014°05'0 0.0
2018-Jul-15 05:28N 54°19' E 014°05'0 0.0
2018-Jul-15 04:52N 54°19' E 014°05'0 0.0
2018-Jul-15 00:55N 54°19' E 014°05'0 0.0
2018-Jul-15 00:01N 54°19' E 014°05'0 0.0
2018-Jul-14 23:49N 54°19' E 014°05'0 0.0
2018-Jul-14 09:16N 54°19' E 014°05'0 0.1
2018-Jul-14 08:49N 54°19' E 014°05'0 0.0
2018-Jul-14 02:16N 54°19' E 014°05'0 0.0
2018-Jul-14 01:52N 54°19' E 014°05'0 0.0
2018-Jul-14 01:28N 54°19' E 014°05'0 0.0
2018-Jul-13 23:34N 54°19' E 014°05'  
Track history (hours):
 
Tides and Currents Weather Stations Pressure Air Temp Water Temp Dewpoint Dewpoint Depression Visibility Wind Speed Wind Dir Waves Ship Positions

Sti Hammersmith

Last reported at 2018-Jul-22 22:00 UTC. Time now 2018-Jul-22 22:02 UTC.
Position N 55°46' E 019°12'.

Length 184 m; draft 9.9 m.

Type: Tanker. MMSI: 538005410.

Date/timePositionNaut miles runAvg speedWind from/ knotsBaromVisibWave heightAir tempDewpointWater temp
2018-Jul-22 22:00N 55°46' E 019°12'611.8
2018-Jul-22 21:30N 55°52' E 019°13'611.8
2018-Jul-22 21:00N 55°57' E 019°14'611.8
2018-Jul-22 20:30N 56°03' E 019°15'612.0
2018-Jul-22 20:00N 56°09' E 019°16'612.0
2018-Jul-22 19:29N 56°16' E 019°17'1412.4
2018-Jul-22 18:21N 56°30' E 019°20'412.7
2018-Jul-22 18:00N 56°34' E 019°21'612.4
2018-Jul-22 17:30N 56°40' E 019°22'912.5
2018-Jul-22 16:49N 56°48' E 019°24'812.5
2018-Jul-22 16:11N 56°57' E 019°25'312.4
2018-Jul-22 15:56N 56°59' E 019°26'1811.8
2018-Jul-22 14:26N 57°16' E 019°38'511.0
2018-Jul-22 13:59N 57°20' E 019°43'9211.9
2018-Jul-22 06:15N 58°42' E 021°05'310.3
2018-Jul-22 06:00N 58°44' E 021°07'610.4
2018-Jul-22 05:26N 58°49' E 021°13'510.5
2018-Jul-22 04:54N 58°54' E 021°19'712.5
2018-Jul-22 04:19N 58°60' E 021°26'413.1
2018-Jul-22 04:00N 59°03' E 021°30'812.7
2018-Jul-22 03:24N 59°10' E 021°40'2912.5
2018-Jul-22 01:05N 59°28' E 022°24'112.6
2018-Jul-22 01:00N 59°28' E 022°25'612.4
2018-Jul-22 00:30N 59°31' E 022°36'612.8
2018-Jul-22 00:00N 59°33' E 022°48'612.7
2018-Jul-21 23:30N 59°35' E 023°00'612.6
2018-Jul-21 23:00N 59°37' E 023°12'612.7
2018-Jul-21 22:30N 59°38' E 023°24'612.9
2018-Jul-21 22:00N 59°40' E 023°37'612.8
2018-Jul-21 21:30N 59°42' E 023°49'712.7
2018-Jul-21 20:59N 59°44' E 024°01'713.0
2018-Jul-21 20:28N 59°46' E 024°14'613.0
2018-Jul-21 20:00N 59°47' E 024°26'612.8
2018-Jul-21 19:30N 59°49' E 024°38'612.6
2018-Jul-21 19:00N 59°50' E 024°50'712.5
2018-Jul-21 18:27N 59°52' E 025°04'612.6
2018-Jul-21 18:00N 59°53' E 025°15'812.3
2018-Jul-21 17:20N 59°58' E 025°28'412.0
2018-Jul-21 17:00N 60°01' E 025°33'611.3
2018-Jul-21 16:30N 60°06' E 025°38'8 0.3
2018-Jul-20 08:36N 60°14' E 025°35'213.2
2018-Jul-20 08:28N 60°12' E 025°36'511.9
2018-Jul-20 08:00N 60°07' E 025°35'510.9
2018-Jul-20 07:30N 60°02' E 025°33'2 4.3
2018-Jul-20 06:56N 60°00' E 025°29'0 0.2
2018-Jul-20 06:30N 60°00' E 025°29'0 0.0
2018-Jul-20 05:54N 60°00' E 025°29'0 0.1
2018-Jul-20 05:30N 60°00' E 025°29'0 0.0
2018-Jul-20 05:00N 60°00' E 025°29'0 0.0
2018-Jul-20 04:29N 60°00' E 025°29'0 0.0
2018-Jul-20 03:35N 60°00' E 025°29'0 0.0
2018-Jul-20 03:23N 60°00' E 025°29'0 0.0
2018-Jul-19 22:41N 60°00' E 025°29'0 0.0
2018-Jul-19 22:29N 60°00' E 025°29'0 0.0
2018-Jul-19 21:59N 60°00' E 025°29'0 0.0
2018-Jul-19 21:29N 60°00' E 025°29'0 0.0
2018-Jul-19 20:50N 60°00' E 025°29'0 0.1
2018-Jul-19 20:29N 60°00' E 025°29'0 0.0
2018-Jul-19 19:59N 60°00' E 025°29'0 0.0
2018-Jul-19 19:29N 60°00' E 025°29'0 0.0
2018-Jul-19 18:53N 60°00' E 025°29'0 0.1
2018-Jul-19 18:29N 60°00' E 025°29'0 0.0
2018-Jul-19 17:59N 60°00' E 025°29'0 0.0
2018-Jul-19 17:29N 60°00' E 025°29'0 0.1
2018-Jul-19 16:53N 60°00' E 025°29'0 0.0
2018-Jul-19 16:29N 60°00' E 025°29'0 0.1
2018-Jul-19 15:59N 60°00' E 025°29'0 0.1
2018-Jul-19 15:29N 60°00' E 025°29'0 0.1
2018-Jul-19 14:59N 60°01' E 025°29'0 0.0
2018-Jul-19 14:29N 60°01' E 025°29'0 0.0
2018-Jul-19 13:29N 60°01' E 025°29'0 0.0
2018-Jul-19 12:59N 60°01' E 025°29'0 0.0
2018-Jul-19 12:29N 60°01' E 025°29'0 0.0
2018-Jul-19 11:56N 60°01' E 025°29'0 0.0
2018-Jul-19 11:23N 60°01' E 025°29'0 0.1
2018-Jul-19 10:53N 60°01' E 025°29'0 0.0
2018-Jul-19 10:26N 60°00' E 025°29'0 0.0
2018-Jul-19 09:59N 60°00' E 025°29'0 0.0
2018-Jul-19 09:26N 60°00' E 025°29'0 0.0
2018-Jul-19 08:08N 60°00' E 025°29'0 0.1
2018-Jul-19 07:59N 60°00' E 025°29'0 0.0
2018-Jul-19 07:29N 60°00' E 025°29'0 0.0
2018-Jul-19 06:59N 60°00' E 025°29'0 0.0
2018-Jul-19 06:29N 60°00' E 025°29'0 0.0
2018-Jul-19 05:59N 60°00' E 025°29'0 0.0
2018-Jul-19 05:29N 60°00' E 025°29'0 0.0
2018-Jul-19 04:59N 60°00' E 025°29'0 0.0
2018-Jul-19 04:29N 60°00' E 025°29'0 0.0
2018-Jul-19 03:59N 60°00' E 025°29'0 0.0
2018-Jul-19 03:26N 60°00' E 025°29'0 0.0
2018-Jul-19 02:59N 60°00' E 025°29'0 0.0
2018-Jul-19 02:29N 60°00' E 025°29'0 0.0
2018-Jul-19 01:59N 60°00' E 025°29'0 0.0
2018-Jul-19 01:29N 60°00' E 025°29'0 0.0
2018-Jul-19 00:59N 60°00' E 025°29'0 0.0
2018-Jul-19 00:29N 60°00' E 025°29'0 0.0
2018-Jul-18 23:59N 60°00' E 025°29'0 0.0
2018-Jul-18 23:29N 60°00' E 025°29'0 0.0
2018-Jul-18 22:59N 60°00' E 025°29'0 0.0
2018-Jul-18 22:26N 60°00' E 025°29'0 0.0
2018-Jul-18 21:59N 60°00' E 025°29'0 0.0
2018-Jul-18 21:29N 60°00' E 025°29'0 0.0
2018-Jul-18 20:59N 60°00' E 025°29'0 0.0
2018-Jul-18 20:29N 60°00' E 025°29'0 0.0
2018-Jul-18 19:50N 60°00' E 025°29'0 0.0
2018-Jul-18 19:29N 60°00' E 025°29'0 0.0
2018-Jul-18 18:59N 60°00' E 025°29'0 0.0
2018-Jul-18 18:29N 60°00' E 025°29'0 0.0
2018-Jul-18 17:56N 60°00' E 025°29'0 0.0
2018-Jul-18 17:29N 60°00' E 025°29'0 0.0
2018-Jul-18 16:59N 60°00' E 025°29'0 0.0
2018-Jul-18 16:29N 60°00' E 025°29'0 0.0
2018-Jul-18 15:56N 60°00' E 025°29'0 0.0
2018-Jul-18 15:29N 60°00' E 025°29'0 0.0
2018-Jul-18 14:56N 60°00' E 025°29'0 0.0
2018-Jul-18 14:29N 60°00' E 025°29'0 0.0
2018-Jul-18 13:29N 60°00' E 025°29'0 0.0
2018-Jul-18 12:53N 60°00' E 025°29'0 0.0
2018-Jul-18 12:29N 60°00' E 025°29'0 0.0
2018-Jul-18 11:59N 60°00' E 025°29'0 0.0
2018-Jul-18 11:29N 60°00' E 025°29'0 0.0
2018-Jul-18 10:26N 60°00' E 025°29'0 0.0
2018-Jul-18 09:59N 60°00' E 025°29'0 0.0
2018-Jul-18 09:23N 60°00' E 025°29'0 0.4
2018-Jul-18 08:58N 60°00' E 025°29'2 5.4
2018-Jul-18 08:31N 59°58' E 025°30'510.3
2018-Jul-18 08:01N 59°53' E 025°28'910.5
2018-Jul-18 07:08N 59°49' E 025°12'111.2
2018-Jul-18 07:00N 59°49' E 025°09'711.6
2018-Jul-18 06:22N 59°47' E 024°55'410.7
2018-Jul-18 06:01N 59°46' E 024°47'611.3
2018-Jul-18 05:30N 59°45' E 024°36'611.5
2018-Jul-18 05:01N 59°43' E 024°25'611.9
2018-Jul-18 04:30N 59°42' E 024°14'1811.8
2018-Jul-18 02:59N 59°36' E 023°40'611.9
2018-Jul-18 02:30N 59°34' E 023°30'611.9
2018-Jul-18 02:00N 59°32' E 023°18'612.0
2018-Jul-18 01:30N 59°30' E 023°07'611.9
2018-Jul-18 01:00N 59°28' E 022°56'3211.9
2018-Jul-17 22:19N 59°11' E 022°03'412.1
2018-Jul-17 22:00N 59°09' E 021°57'612.0
2018-Jul-17 21:30N 59°05' E 021°48'611.8
2018-Jul-17 21:01N 59°01' E 021°40'611.7
2018-Jul-17 20:30N 58°56' E 021°34'611.9
2018-Jul-17 20:01N 58°51' E 021°28'612.0
2018-Jul-17 19:30N 58°46' E 021°21'612.1
2018-Jul-17 19:00N 58°41' E 021°15'612.0
2018-Jul-17 18:30N 58°36' E 021°08'612.1
2018-Jul-17 18:01N 58°31' E 021°02'612.1
2018-Jul-17 17:30N 58°26' E 020°55'612.0
2018-Jul-17 17:00N 58°21' E 020°49'612.2
2018-Jul-17 16:30N 58°16' E 020°42'612.1
2018-Jul-17 16:00N 58°11' E 020°36'612.2
2018-Jul-17 15:30N 58°06' E 020°29'612.1
2018-Jul-17 14:59N 58°01' E 020°23'611.9
2018-Jul-17 14:28N 57°55' E 020°18'5511.8
2018-Jul-17 09:50N 57°06' E 019°33'411.5
2018-Jul-17 09:30N 57°03' E 019°30'611.8
2018-Jul-17 09:00N 56°58' E 019°25'611.9
2018-Jul-17 08:30N 56°52' E 019°20'611.9
2018-Jul-17 08:00N 56°47' E 019°16'612.0
2018-Jul-17 07:29N 56°41' E 019°11'612.1
2018-Jul-17 07:01N 56°36' E 019°06'612.0
2018-Jul-17 06:30N 56°31' E 019°01'1012.1
2018-Jul-17 05:38N 56°21' E 018°53'212.2
2018-Jul-17 05:30N 56°20' E 018°51'611.8
2018-Jul-17 04:59N 56°16' E 018°43'612.2
2018-Jul-17 04:30N 56°13' E 018°34'612.1
2018-Jul-17 04:00N 56°10' E 018°25'612.1
2018-Jul-17 03:30N 56°06' E 018°16'612.0
2018-Jul-17 03:00N 56°03' E 018°07'611.9
2018-Jul-17 02:30N 56°00' E 017°58'612.1
2018-Jul-17 02:00N 55°57' E 017°49'612.0
2018-Jul-17 01:30N 55°54' E 017°39'612.0
2018-Jul-17 01:00N 55°53' E 017°29'611.9
2018-Jul-17 00:30N 55°51' E 017°18'1211.8
2018-Jul-16 23:30N 55°44' E 017°02'612.1
2018-Jul-16 23:00N 55°40' E 016°54'612.1
2018-Jul-16 22:30N 55°36' E 016°46'612.0
2018-Jul-16 22:00N 55°31' E 016°39'611.9
2018-Jul-16 21:30N 55°27' E 016°32'611.9
2018-Jul-16 21:00N 55°23' E 016°24'612.2
2018-Jul-16 20:30N 55°19' E 016°16'612.1
2018-Jul-16 20:01N 55°15' E 016°08'612.0
2018-Jul-16 19:30N 55°11' E 016°00'612.0
2018-Jul-16 19:01N 55°07' E 015°53'611.9
2018-Jul-16 18:30N 55°03' E 015°46'612.0
2018-Jul-16 18:00N 54°58' E 015°38'712.0
2018-Jul-16 17:28N 54°54' E 015°30'612.3
2018-Jul-16 17:01N 54°50' E 015°23'612.2
2018-Jul-16 16:30N 54°46' E 015°14'612.2
2018-Jul-16 16:00N 54°42' E 015°07'612.1
2018-Jul-16 15:31N 54°39' E 014°58'712.2
2018-Jul-16 14:59N 54°36' E 014°48'612.3
2018-Jul-16 14:30N 54°34' E 014°39'612.5
2018-Jul-16 14:01N 54°32' E 014°28'612.6
2018-Jul-16 13:31N 54°31' E 014°18'611.8
2018-Jul-16 13:00N 54°28' E 014°08'612.6
2018-Jul-16 12:31N 54°22' E 014°05'3 5.1
2018-Jul-16 11:55N 54°19' E 014°05'0 0.0
2018-Jul-16 11:25N 54°19' E 014°05'0 0.0
2018-Jul-16 10:55N 54°19' E 014°05'0 0.0
2018-Jul-16 10:19N 54°19' E 014°05'0 0.0
2018-Jul-16 09:19N 54°19' E 014°05'0 0.0
2018-Jul-16 08:58N 54°19' E 014°05'0 0.0
2018-Jul-16 08:13N 54°19' E 014°05'0 0.0
2018-Jul-16 07:58N 54°19' E 014°05'0 0.0
2018-Jul-16 07:25N 54°19' E 014°05'0 0.0
2018-Jul-16 06:55N 54°19' E 014°05'0 0.0
2018-Jul-16 06:28N 54°19' E 014°05'0 0.0
2018-Jul-16 05:55N 54°19' E 014°05'0 0.0
2018-Jul-16 05:28N 54°19' E 014°05'0 0.0
2018-Jul-16 04:58N 54°19' E 014°05'0 0.0
2018-Jul-16 04:28N 54°19' E 014°05'0 0.0
2018-Jul-16 03:58N 54°19' E 014°05'0 0.0
2018-Jul-16 03:25N 54°19' E 014°05'0 0.0
2018-Jul-16 02:58N 54°19' E 014°05'0 0.0
2018-Jul-16 02:25N 54°19' E 014°05'0 0.0
2018-Jul-15 19:28N 54°19' E 014°05'0 0.0
2018-Jul-15 18:43N 54°19' E 014°05'0 0.0
2018-Jul-15 18:25N 54°19' E 014°05'0 0.0
2018-Jul-15 17:58N 54°19' E 014°05'0 0.0
2018-Jul-15 17:28N 54°19' E 014°05'0 0.0
2018-Jul-15 11:10N 54°19' E 014°05'0 0.0
2018-Jul-15 09:58N 54°19' E 014°05'0 0.0
2018-Jul-15 09:13N 54°19' E 014°05'0 0.0
2018-Jul-15 07:40N 54°19' E 014°05'0 0.0
2018-Jul-15 07:28N 54°19' E 014°05'0 0.0
2018-Jul-15 06:52N 54°19' E 014°05'0 0.1
2018-Jul-15 06:01N 54°19' E 014°05'0 0.0
2018-Jul-15 05:49N 54°19' E 014°05'0 0.0
2018-Jul-15 05:28N 54°19' E 014°05'0 0.0
2018-Jul-15 04:52N 54°19' E 014°05'0 0.0
2018-Jul-15 00:55N 54°19' E 014°05'0 0.0
2018-Jul-15 00:01N 54°19' E 014°05'0 0.0
2018-Jul-14 23:49N 54°19' E 014°05'0 0.0
2018-Jul-14 09:16N 54°19' E 014°05'0 0.1
2018-Jul-14 08:49N 54°19' E 014°05'0 0.0
2018-Jul-14 02:16N 54°19' E 014°05'0 0.0
2018-Jul-14 01:52N 54°19' E 014°05'0 0.0
2018-Jul-14 01:28N 54°19' E 014°05'0 0.0
2018-Jul-13 23:34N 54°19' E 014°05'  

Dump ship's entire track history